Pereslavl'-Zalesskiy, Russia
Current Conditions -  °F | °C
As of 2:00 PM on Sunday 21 Dec 2014 (Local Time) from UUEE Reporting Station
Broken Clouds Broken Clouds  
Wind Chill: 27°   Ceiling: 1000
Heat Index: 36°   Visibility: 6mi
Dew Point: 34°   Wind: 13mph
Humidity: 93%   Direction: 210°SSW
Pressure: 29.41"   Gusts: NA
Location:  56.44°N, 38.51°E
Report Text: UUEE 211100Z 21006MPS 9999 BKN010 BKN017CB 02/01 Q0996 7552014525520145 NOSIG
Loading
Personal Weather Stations






























Interactive Weather Map New forecast layout! Learn more

10-Day Weather Forecast

Advertisements
Track Severe Weather on mobile